Flight Track Log - Related Links

Times and Time Zones

All times are in EDT time to prevent confusion due to time zone crossing. See the UAL3740 flight status page for this flight to view local times or setup timezone preferences in your user account.

Time Position Orientation Groundspeed Altitude Reporting Facility
EDT Latitude Longitude Course Direction KTS MPH feet Rate Location/Type
Sun 06:39:39 PM 41.9333 -87.8833 228° Southwest 193 222 2,400  Level Chicago TRACON
Sun 06:40:39 PM 41.9000 -87.9333 228° Southwest 233 268 4,900 1,700 Climbing Chicago TRACON
Sun 06:41:39 PM 41.8333 -88.0000 217° Southwest 282 325 5,800 1,800 Climbing Chicago TRACON
Sun 06:42:39 PM 41.7667 -88.0667 217° Southwest 291 335 8,500 2,600 Climbing Chicago TRACON
Sun 06:43:09 PM 41.7622 -88.1144 263° West 296 341 9,700 2,543 Climbing Chicago Center
Sun 06:44:11 PM 41.7869 -88.2242 287° West 287 330 12,400 1,984 Climbing Chicago Center
Sun 06:45:13 PM 41.8108 -88.3347 286° West 308 354 13,800 1,161 Climbing Chicago Center
Sun 06:46:15 PM 41.8294 -88.4792 280° West 367 422 14,800 1,200 Climbing Chicago Center
Sun 06:47:18 PM 41.8322 -88.6217 272° West 379 436 16,300 1,440 Climbing Chicago Center
Sun 06:48:20 PM 41.8344 -88.7772 271° West 387 445 17,800 1,306 Climbing Chicago Center
Sun 06:49:22 PM 41.8392 -88.9197 273° West 387 445 19,000 1,065 Climbing Chicago Center
Sun 06:50:24 PM 41.8414 -89.0728 271° West 406 467 20,000 968 Climbing Chicago Center
Sun 06:51:26 PM 41.8442 -89.2311 271° West 420 483 21,000 1,056 Climbing Chicago Center
Sun 06:52:29 PM 41.8464 -89.3917 271° West 431 496 22,200 1,296 Climbing Chicago Center
Sun 06:53:31 PM 41.8494 -89.5839 271° West 432 497 23,700 1,306 Climbing Chicago Center
Sun 06:54:33 PM 41.8481 -89.7447 269° West 432 497 24,900 1,113 Climbing Chicago Center
Sun 06:55:35 PM 41.8333 -89.9042 263° West 433 498 26,000 1,065 Climbing Chicago Center
Sun 06:56:37 PM 41.8192 -90.0800 264° West 434 499 27,100 1,016 Climbing Chicago Center
Sun 06:57:39 PM 41.8042 -90.2428 263° West 439 505 28,100 960 Climbing Chicago Center
Sun 06:58:42 PM 41.7897 -90.4078 263° West 443 510 29,100 864 Climbing Chicago Center
Sun 06:59:44 PM 41.7736 -90.5722 263° West 445 512 29,900 726 Climbing Chicago Center
Sun 07:00:46 PM 41.7589 -90.7372 263° West 447 514 30,600 816 Climbing Chicago Center
Sun 07:01:49 PM 41.7406 -90.9361 263° West 448 516 31,600 864 Climbing Chicago Center
Sun 07:02:51 PM 41.7247 -91.1042 263° West 451 519 32,400 774 Climbing Chicago Center
Sun 07:03:53 PM 41.7081 -91.2711 262° West 451 519 33,200 871 Climbing Chicago Center
Sun 07:04:55 PM 41.6858 -91.4536 261° West 461 531 34,200 968 Climbing Chicago Center
Sun 07:05:57 PM 41.6686 -91.6117 262° West 442 509 35,200 871 Climbing Chicago Center
Sun 07:06:59 PM 41.6617 -91.7700 267° West 436 502 36,000 384 Climbing Chicago Center
Sun 07:08:02 PM 41.6561 -91.9278 267° West 432 497 36,000  Level Chicago Center
Sun 07:09:04 PM 41.6508 -92.1211 268° West 439 505 36,000  Level Chicago Center
Sun 07:10:06 PM 41.6447 -92.2806 267° West 438 504 36,000  Level Chicago Center
Sun 07:11:09 PM 41.6403 -92.4417 268° West 438 504 36,000  Level Chicago Center
Sun 07:12:10 PM 41.6336 -92.6047 267° West 444 511 36,000  Level Chicago Center
Sun 07:12:45 PM 41.6311 -92.6986 268° West 437 503 36,000  Level Minneapolis Center
Sun 07:13:47 PM 41.6244 -92.8586 267° West 437 503 36,000  Level Minneapolis Center
Sun 07:14:50 PM 41.6172 -93.0475 267° West 435 501 36,000  Level Minneapolis Center
Sun 07:15:52 PM 41.6111 -93.2053 267° West 434 499 36,000  Level Minneapolis Center
Sun 07:16:54 PM 41.6042 -93.3619 267° West 432 497 36,000 -48 Level Minneapolis Center
Sun 07:17:56 PM 41.5964 -93.5189 266° West 431 496 35,900 -1,210 Descending Minneapolis Center
Sun 07:18:58 PM 41.5872 -93.7144 266° West 440 506 33,500 -2,129 Descending Minneapolis Center
Sun 07:20:00 PM 41.5803 -93.8828 267° West 453 521 31,500 -1,920 Descending Minneapolis Center
Sun 07:21:03 PM 41.5711 -94.0500 266° West 454 522 29,500 -1,920 Descending Minneapolis Center
Sun 07:22:05 PM 41.5631 -94.2189 266° West 457 526 27,500 -2,081 Descending Minneapolis Center
Sun 07:23:07 PM 41.5522 -94.4178 266° West 457 526 25,200 -2,129 Descending Minneapolis Center
Sun 07:24:09 PM 41.5431 -94.5836 266° West 454 522 23,100 -1,984 Descending Minneapolis Center
Sun 07:25:11 PM 41.5342 -94.7481 266° West 451 519 21,100 -1,500 Descending Minneapolis Center
Sun 07:26:13 PM 41.5253 -94.9067 266° West 434 499 20,000 -1,024 Descending Minneapolis Center
Sun 07:26:33 PM 41.5347 -94.9808 280° West 414 476 19,700 -1,429 Descending Minneapolis Center
Sun 07:27:16 PM 41.5164 -95.0586 253° West 416 479 18,500 -1,829 Descending Minneapolis Center
Sun 07:28:18 PM 41.5064 -95.2119 265° West 415 478 16,500 -2,286 Descending Minneapolis Center
Sun 07:28:40 PM 41.5167 -95.3089 278° West 413 475 15,300 -2,516 Descending Minneapolis Center
Sun 07:29:20 PM 41.5142 -95.3928 268° West 409 471 13,900 -1,964 Descending Minneapolis Center
Sun 07:29:35 PM 41.5214 -95.4367 282° West 405 466 13,500 -2,226 Descending Minneapolis Center
Sun 07:30:22 PM 41.5189 -95.5350 268° West 392 451 11,600 -2,239 Descending Minneapolis Center
Sun 07:30:42 PM 41.5239 -95.5922 277° West 360 414 11,000 -1,065 Descending Minneapolis Center
Sun 07:31:24 PM 41.5247 -95.6592 271° West 344 396 10,500 -800 Descending Minneapolis Center
Sun 07:31:42 PM 41.5297 -95.7086 278° West 295 339 10,200 -1,475 Descending Minneapolis Center
Sun 07:32:25 PM 41.5325 -95.7806 273° West 275 316 9,000 -1,788 Descending Minneapolis Center
Sun 07:33:26 PM 41.5083 -95.8892 253° West 277 319 7,100 -1,571 Descending Minneapolis Center
Sun 07:34:31 PM 41.4903 -95.9711 254° West 261 300 5,700 -1,462 Descending Minneapolis Center
Sun 07:34:44 PM 41.4842 -96.0006 255° West 215 247 5,200 -1,839 Descending Minneapolis Center
Sun 07:35:33 PM 41.4483 -96.0108 192° South 228 262 3,800 -1,869 Descending Minneapolis Center
Sun 07:35:45 PM 41.4308 -96.0178 197° South 206 237 3,300 -1,355 Descending Minneapolis Center
Sun 07:36:35 PM 41.3961 -95.9842 144° Southeast 210 242 2,400 -661 Descending Minneapolis Center
Sun 07:37:34 PM 41.3578 -95.9539 149° Southeast 145 167 2,100 -484 Descending Minneapolis Center
Sun 07:38:39 PM 41.3283 -95.9197 139° Southeast 154 177 1,400 -520 Descending Minneapolis Center
Sun 07:39:41 PM 41.2989 -95.8906 143° Southeast 140 161 1,000 -387 Descending Minneapolis Center
Sun 07:41:00 PM 41.3000 -95.8833 North  Level FlightAware Approximate

Login

Don't have an account? Register now (free) for customized features, flight alerts, and more!